sensor_id;sensor_type;location;lat;lon;timestamp;temperature;humidity
913;DHT22;443;51.448;7.028;2023-01-29T00:00:20;9.00;66.40
913;DHT22;443;51.448;7.028;2023-01-29T00:02:47;9.00;66.50
913;DHT22;443;51.448;7.028;2023-01-29T00:05:14;9.00;66.10
913;DHT22;443;51.448;7.028;2023-01-29T00:07:42;9.00;66.10
913;DHT22;443;51.448;7.028;2023-01-29T00:10:10;9.10;67.00
913;DHT22;443;51.448;7.028;2023-01-29T00:12:37;9.10;66.80
913;DHT22;443;51.448;7.028;2023-01-29T00:15:04;9.00;66.20
913;DHT22;443;51.448;7.028;2023-01-29T00:17:31;9.10;68.40
913;DHT22;443;51.448;7.028;2023-01-29T00:19:58;9.00;65.60
913;DHT22;443;51.448;7.028;2023-01-29T00:22:25;9.00;66.70
913;DHT22;443;51.448;7.028;2023-01-29T00:24:53;9.00;66.30
913;DHT22;443;51.448;7.028;2023-01-29T00:27:20;8.90;66.70
913;DHT22;443;51.448;7.028;2023-01-29T00:29:46;8.90;66.90
913;DHT22;443;51.448;7.028;2023-01-29T00:32:33;9.00;67.50
913;DHT22;443;51.448;7.028;2023-01-29T00:35:00;8.90;66.10
913;DHT22;443;51.448;7.028;2023-01-29T00:37:27;8.90;65.40
913;DHT22;443;51.448;7.028;2023-01-29T00:39:55;8.90;66.40
913;DHT22;443;51.448;7.028;2023-01-29T00:42:23;8.90;65.10
913;DHT22;443;51.448;7.028;2023-01-29T00:45:08;9.00;67.00
913;DHT22;443;51.448;7.028;2023-01-29T00:47:35;8.90;65.50
913;DHT22;443;51.448;7.028;2023-01-29T00:50:04;8.90;66.40
913;DHT22;443;51.448;7.028;2023-01-29T00:52:31;8.90;65.70
913;DHT22;443;51.448;7.028;2023-01-29T00:54:59;8.90;65.80
913;DHT22;443;51.448;7.028;2023-01-29T00:57:27;9.00;66.30
913;DHT22;443;51.448;7.028;2023-01-29T00:59:54;8.90;65.00
913;DHT22;443;51.448;7.028;2023-01-29T01:02:22;8.90;65.20
913;DHT22;443;51.448;7.028;2023-01-29T01:05:07;8.90;66.60
913;DHT22;443;51.448;7.028;2023-01-29T01:07:38;8.90;65.00
913;DHT22;443;51.448;7.028;2023-01-29T01:10:12;8.80;65.40
913;DHT22;443;51.448;7.028;2023-01-29T01:12:47;8.90;65.20
913;DHT22;443;51.448;7.028;2023-01-29T01:15:15;9.00;65.90
913;DHT22;443;51.448;7.028;2023-01-29T01:17:42;9.00;65.40
913;DHT22;443;51.448;7.028;2023-01-29T01:20:10;8.90;64.80
913;DHT22;443;51.448;7.028;2023-01-29T01:22:37;8.90;65.30
913;DHT22;443;51.448;7.028;2023-01-29T01:25:06;9.00;65.70
913;DHT22;443;51.448;7.028;2023-01-29T01:27:32;9.00;65.40
913;DHT22;443;51.448;7.028;2023-01-29T01:30:02;9.00;65.60
913;DHT22;443;51.448;7.028;2023-01-29T01:32:29;8.90;65.00
913;DHT22;443;51.448;7.028;2023-01-29T01:34:56;8.90;64.70
913;DHT22;443;51.448;7.028;2023-01-29T01:37:23;8.90;65.80
913;DHT22;443;51.448;7.028;2023-01-29T01:39:49;9.10;66.90
913;DHT22;443;51.448;7.028;2023-01-29T01:42:17;9.00;65.70
913;DHT22;443;51.448;7.028;2023-01-29T01:44:55;9.00;65.10
913;DHT22;443;51.448;7.028;2023-01-29T01:47:27;8.90;64.60
913;DHT22;443;51.448;7.028;2023-01-29T01:49:56;8.90;65.50
913;DHT22;443;51.448;7.028;2023-01-29T01:52:26;9.00;65.60
913;DHT22;443;51.448;7.028;2023-01-29T01:54:54;9.00;65.90
913;DHT22;443;51.448;7.028;2023-01-29T01:57:23;8.90;64.90
913;DHT22;443;51.448;7.028;2023-01-29T01:59:54;9.00;65.30
913;DHT22;443;51.448;7.028;2023-01-29T02:02:23;9.00;64.60
913;DHT22;443;51.448;7.028;2023-01-29T02:05:09;9.00;65.70
913;DHT22;443;51.448;7.028;2023-01-29T02:07:55;8.90;65.80
913;DHT22;443;51.448;7.028;2023-01-29T02:10:42;9.00;65.90
913;DHT22;443;51.448;7.028;2023-01-29T02:13:11;9.00;65.70
913;DHT22;443;51.448;7.028;2023-01-29T02:15:40;8.90;65.80
913;DHT22;443;51.448;7.028;2023-01-29T02:18:11;9.00;66.90
913;DHT22;443;51.448;7.028;2023-01-29T02:20:41;9.00;66.20
913;DHT22;443;51.448;7.028;2023-01-29T02:23:29;9.00;67.10
913;DHT22;443;51.448;7.028;2023-01-29T02:26:14;9.00;66.00
913;DHT22;443;51.448;7.028;2023-01-29T02:28:49;9.00;66.10
913;DHT22;443;51.448;7.028;2023-01-29T02:31:25;9.00;66.00
913;DHT22;443;51.448;7.028;2023-01-29T02:34:02;9.00;65.80
913;DHT22;443;51.448;7.028;2023-01-29T02:36:36;9.00;66.00
913;DHT22;443;51.448;7.028;2023-01-29T02:39:12;9.10;66.20
913;DHT22;443;51.448;7.028;2023-01-29T02:41:43;9.10;66.00
913;DHT22;443;51.448;7.028;2023-01-29T02:44:17;9.20;66.00
913;DHT22;443;51.448;7.028;2023-01-29T02:46:52;9.10;66.70
913;DHT22;443;51.448;7.028;2023-01-29T02:49:25;9.10;65.90
913;DHT22;443;51.448;7.028;2023-01-29T02:52:00;9.10;66.00
913;DHT22;443;51.448;7.028;2023-01-29T02:54:33;9.10;65.20
913;DHT22;443;51.448;7.028;2023-01-29T02:57:09;9.10;65.10
913;DHT22;443;51.448;7.028;2023-01-29T02:59:45;9.10;65.20
913;DHT22;443;51.448;7.028;2023-01-29T03:02:17;9.00;65.40
913;DHT22;443;51.448;7.028;2023-01-29T03:04:48;9.10;66.40
913;DHT22;443;51.448;7.028;2023-01-29T03:07:18;9.10;65.60
913;DHT22;443;51.448;7.028;2023-01-29T03:10:03;9.10;65.80
913;DHT22;443;51.448;7.028;2023-01-29T03:12:33;9.00;65.10
913;DHT22;443;51.448;7.028;2023-01-29T03:15:06;9.00;65.70
913;DHT22;443;51.448;7.028;2023-01-29T03:17:44;9.00;66.20
913;DHT22;443;51.448;7.028;2023-01-29T03:20:16;9.00;65.40
913;DHT22;443;51.448;7.028;2023-01-29T03:22:48;9.00;65.70
913;DHT22;443;51.448;7.028;2023-01-29T03:25:17;9.10;65.70
913;DHT22;443;51.448;7.028;2023-01-29T03:28:03;9.10;65.50
913;DHT22;443;51.448;7.028;2023-01-29T03:30:53;9.10;65.80
913;DHT22;443;51.448;7.028;2023-01-29T03:33:43;9.20;66.20
913;DHT22;443;51.448;7.028;2023-01-29T03:36:14;9.10;65.30
913;DHT22;443;51.448;7.028;2023-01-29T03:38:42;8.90;64.70
913;DHT22;443;51.448;7.028;2023-01-29T03:41:16;9.00;66.00
913;DHT22;443;51.448;7.028;2023-01-29T03:43:50;9.00;66.60
913;DHT22;443;51.448;7.028;2023-01-29T03:46:24;9.10;66.10
913;DHT22;443;51.448;7.028;2023-01-29T03:48:59;9.00;65.00
913;DHT22;443;51.448;7.028;2023-01-29T03:51:31;9.00;65.70
913;DHT22;443;51.448;7.028;2023-01-29T03:54:06;9.00;65.30
913;DHT22;443;51.448;7.028;2023-01-29T03:56:42;9.00;65.70
913;DHT22;443;51.448;7.028;2023-01-29T03:59:19;9.00;65.00
913;DHT22;443;51.448;7.028;2023-01-29T04:01:52;9.00;65.70
913;DHT22;443;51.448;7.028;2023-01-29T04:04:23;8.90;64.90
913;DHT22;443;51.448;7.028;2023-01-29T04:06:51;9.00;66.40
913;DHT22;443;51.448;7.028;2023-01-29T04:09:21;9.10;66.00
913;DHT22;443;51.448;7.028;2023-01-29T04:11:53;9.00;64.80
913;DHT22;443;51.448;7.028;2023-01-29T04:14:22;9.10;65.20
913;DHT22;443;51.448;7.028;2023-01-29T04:16:52;9.10;66.10
913;DHT22;443;51.448;7.028;2023-01-29T04:19:21;9.10;65.10
913;DHT22;443;51.448;7.028;2023-01-29T04:21:53;9.10;64.80
913;DHT22;443;51.448;7.028;2023-01-29T04:24:23;9.00;64.60
913;DHT22;443;51.448;7.028;2023-01-29T04:26:59;9.10;65.20
913;DHT22;443;51.448;7.028;2023-01-29T04:29:39;9.10;64.80
913;DHT22;443;51.448;7.028;2023-01-29T04:32:14;9.10;65.20
913;DHT22;443;51.448;7.028;2023-01-29T04:34:50;9.10;66.20
913;DHT22;443;51.448;7.028;2023-01-29T04:37:30;9.10;65.20
913;DHT22;443;51.448;7.028;2023-01-29T04:40:04;9.00;65.10
913;DHT22;443;51.448;7.028;2023-01-29T04:42:40;9.00;65.10
913;DHT22;443;51.448;7.028;2023-01-29T04:45:17;9.00;65.40
913;DHT22;443;51.448;7.028;2023-01-29T04:47:49;9.10;65.90
913;DHT22;443;51.448;7.028;2023-01-29T04:50:24;9.20;65.60
913;DHT22;443;51.448;7.028;2023-01-29T04:52:56;9.10;65.00
913;DHT22;443;51.448;7.028;2023-01-29T04:55:31;9.00;64.60
913;DHT22;443;51.448;7.028;2023-01-29T04:58:05;9.10;64.90
913;DHT22;443;51.448;7.028;2023-01-29T05:00:37;9.10;64.90
913;DHT22;443;51.448;7.028;2023-01-29T05:03:08;9.10;64.90
913;DHT22;443;51.448;7.028;2023-01-29T05:05:39;9.10;64.90
913;DHT22;443;51.448;7.028;2023-01-29T05:08:08;9.10;65.30
913;DHT22;443;51.448;7.028;2023-01-29T05:10:36;9.10;64.90
913;DHT22;443;51.448;7.028;2023-01-29T05:13:06;9.00;64.70
913;DHT22;443;51.448;7.028;2023-01-29T05:15:37;8.90;64.40
913;DHT22;443;51.448;7.028;2023-01-29T05:18:05;8.90;64.90
913;DHT22;443;51.448;7.028;2023-01-29T05:20:36;8.90;64.70
913;DHT22;443;51.448;7.028;2023-01-29T05:23:04;9.00;65.90
913;DHT22;443;51.448;7.028;2023-01-29T05:25:32;9.00;65.00
913;DHT22;443;51.448;7.028;2023-01-29T05:27:59;9.00;65.00
913;DHT22;443;51.448;7.028;2023-01-29T05:30:28;9.00;65.20
913;DHT22;443;51.448;7.028;2023-01-29T05:32:55;9.00;65.00
913;DHT22;443;51.448;7.028;2023-01-29T05:35:21;9.00;65.00
913;DHT22;443;51.448;7.028;2023-01-29T05:37:50;9.00;64.90
913;DHT22;443;51.448;7.028;2023-01-29T05:40:16;8.90;64.70
913;DHT22;443;51.448;7.028;2023-01-29T05:42:43;8.90;64.90
913;DHT22;443;51.448;7.028;2023-01-29T05:45:10;8.90;64.90
913;DHT22;443;51.448;7.028;2023-01-29T05:47:37;8.90;65.20
913;DHT22;443;51.448;7.028;2023-01-29T05:50:04;8.90;65.60
913;DHT22;443;51.448;7.028;2023-01-29T05:52:31;8.90;65.00
913;DHT22;443;51.448;7.028;2023-01-29T05:54:59;9.00;65.30
913;DHT22;443;51.448;7.028;2023-01-29T05:57:26;9.00;65.20
913;DHT22;443;51.448;7.028;2023-01-29T05:59:52;9.00;65.00
913;DHT22;443;51.448;7.028;2023-01-29T06:02:19;9.00;64.50
913;DHT22;443;51.448;7.028;2023-01-29T06:04:46;9.00;65.70
913;DHT22;443;51.448;7.028;2023-01-29T06:07:13;9.00;65.40
913;DHT22;443;51.448;7.028;2023-01-29T06:09:39;9.00;66.00
913;DHT22;443;51.448;7.028;2023-01-29T06:12:07;9.00;65.40
913;DHT22;443;51.448;7.028;2023-01-29T06:14:34;9.10;65.90
913;DHT22;443;51.448;7.028;2023-01-29T06:17:01;9.10;65.30
913;DHT22;443;51.448;7.028;2023-01-29T06:19:28;9.20;64.60
913;DHT22;443;51.448;7.028;2023-01-29T06:21:54;9.10;64.80
913;DHT22;443;51.448;7.028;2023-01-29T06:24:21;9.10;64.90
913;DHT22;443;51.448;7.028;2023-01-29T06:26:48;9.20;65.40
913;DHT22;443;51.448;7.028;2023-01-29T06:29:16;9.30;65.00
913;DHT22;443;51.448;7.028;2023-01-29T06:31:43;9.20;64.50
913;DHT22;443;51.448;7.028;2023-01-29T06:34:09;9.20;64.80
913;DHT22;443;51.448;7.028;2023-01-29T06:36:36;9.30;65.00
913;DHT22;443;51.448;7.028;2023-01-29T06:39:03;9.40;65.30
913;DHT22;443;51.448;7.028;2023-01-29T06:41:30;9.40;64.90
913;DHT22;443;51.448;7.028;2023-01-29T06:43:56;9.30;64.10
913;DHT22;443;51.448;7.028;2023-01-29T06:46:24;9.40;65.20
913;DHT22;443;51.448;7.028;2023-01-29T06:48:51;9.40;64.70
913;DHT22;443;51.448;7.028;2023-01-29T06:51:18;9.50;65.80
913;DHT22;443;51.448;7.028;2023-01-29T06:53:45;9.40;64.90
913;DHT22;443;51.448;7.028;2023-01-29T06:56:12;9.40;65.10
913;DHT22;443;51.448;7.028;2023-01-29T06:58:39;9.40;64.80
913;DHT22;443;51.448;7.028;2023-01-29T07:01:09;9.40;65.00
913;DHT22;443;51.448;7.028;2023-01-29T07:03:37;9.30;64.70
913;DHT22;443;51.448;7.028;2023-01-29T07:06:06;9.40;65.30
913;DHT22;443;51.448;7.028;2023-01-29T07:08:35;9.40;64.80
913;DHT22;443;51.448;7.028;2023-01-29T07:11:02;9.50;65.30
913;DHT22;443;51.448;7.028;2023-01-29T07:13:29;9.50;64.80
913;DHT22;443;51.448;7.028;2023-01-29T07:15:57;9.40;64.80
913;DHT22;443;51.448;7.028;2023-01-29T07:18:24;9.40;65.00
913;DHT22;443;51.448;7.028;2023-01-29T07:20:52;9.30;64.70
913;DHT22;443;51.448;7.028;2023-01-29T07:23:19;9.40;65.60
913;DHT22;443;51.448;7.028;2023-01-29T07:25:46;9.40;64.90
913;DHT22;443;51.448;7.028;2023-01-29T07:28:14;9.40;66.30
913;DHT22;443;51.448;7.028;2023-01-29T07:30:41;9.40;65.30
913;DHT22;443;51.448;7.028;2023-01-29T07:33:09;9.40;65.40
913;DHT22;443;51.448;7.028;2023-01-29T07:35:37;9.30;64.90
913;DHT22;443;51.448;7.028;2023-01-29T07:38:06;9.30;65.30
913;DHT22;443;51.448;7.028;2023-01-29T07:40:32;9.40;65.80
913;DHT22;443;51.448;7.028;2023-01-29T07:43:00;9.30;65.00
913;DHT22;443;51.448;7.028;2023-01-29T07:45:27;9.20;65.90
913;DHT22;443;51.448;7.028;2023-01-29T07:47:55;9.30;65.20
913;DHT22;443;51.448;7.028;2023-01-29T07:50:22;9.40;65.40
913;DHT22;443;51.448;7.028;2023-01-29T07:52:49;9.40;65.60
913;DHT22;443;51.448;7.028;2023-01-29T07:55:18;9.40;65.10
913;DHT22;443;51.448;7.028;2023-01-29T07:57:45;9.40;65.20
913;DHT22;443;51.448;7.028;2023-01-29T08:00:12;9.30;65.30
913;DHT22;443;51.448;7.028;2023-01-29T08:02:40;9.30;65.00
913;DHT22;443;51.448;7.028;2023-01-29T08:05:07;9.20;65.10
913;DHT22;443;51.448;7.028;2023-01-29T08:07:34;9.40;66.00
913;DHT22;443;51.448;7.028;2023-01-29T08:10:01;9.30;64.30
913;DHT22;443;51.448;7.028;2023-01-29T08:12:29;9.20;65.00
913;DHT22;443;51.448;7.028;2023-01-29T08:14:56;9.30;65.10
913;DHT22;443;51.448;7.028;2023-01-29T08:17:23;9.30;65.50
913;DHT22;443;51.448;7.028;2023-01-29T08:19:49;9.40;66.00
913;DHT22;443;51.448;7.028;2023-01-29T08:22:16;9.40;64.80
913;DHT22;443;51.448;7.028;2023-01-29T08:24:43;9.40;65.20
913;DHT22;443;51.448;7.028;2023-01-29T08:27:10;9.30;65.20
913;DHT22;443;51.448;7.028;2023-01-29T08:29:38;9.20;65.50
913;DHT22;443;51.448;7.028;2023-01-29T08:32:08;9.20;65.40
913;DHT22;443;51.448;7.028;2023-01-29T08:34:35;9.20;65.00
913;DHT22;443;51.448;7.028;2023-01-29T08:37:02;9.30;65.00
913;DHT22;443;51.448;7.028;2023-01-29T08:39:29;9.30;64.80
913;DHT22;443;51.448;7.028;2023-01-29T08:41:55;9.40;65.10
913;DHT22;443;51.448;7.028;2023-01-29T08:44:22;9.40;64.70
913;DHT22;443;51.448;7.028;2023-01-29T08:46:50;9.50;65.30
913;DHT22;443;51.448;7.028;2023-01-29T08:49:17;9.40;64.80
913;DHT22;443;51.448;7.028;2023-01-29T08:51:45;9.40;64.90
913;DHT22;443;51.448;7.028;2023-01-29T08:54:11;9.40;64.90
913;DHT22;443;51.448;7.028;2023-01-29T08:56:38;9.40;65.00
913;DHT22;443;51.448;7.028;2023-01-29T08:59:05;9.40;65.00
913;DHT22;443;51.448;7.028;2023-01-29T09:01:32;9.30;65.30
913;DHT22;443;51.448;7.028;2023-01-29T09:04:00;9.40;65.70
913;DHT22;443;51.448;7.028;2023-01-29T09:06:26;9.40;65.10
913;DHT22;443;51.448;7.028;2023-01-29T09:08:53;9.40;65.40
913;DHT22;443;51.448;7.028;2023-01-29T09:11:20;9.50;65.10
913;DHT22;443;51.448;7.028;2023-01-29T09:13:47;9.40;64.40
913;DHT22;443;51.448;7.028;2023-01-29T09:16:14;9.30;65.50
913;DHT22;443;51.448;7.028;2023-01-29T09:18:40;9.40;65.90
913;DHT22;443;51.448;7.028;2023-01-29T09:21:09;9.40;66.00
913;DHT22;443;51.448;7.028;2023-01-29T09:23:36;9.50;65.90
913;DHT22;443;51.448;7.028;2023-01-29T09:26:03;9.50;65.10
913;DHT22;443;51.448;7.028;2023-01-29T09:28:30;9.50;65.00
913;DHT22;443;51.448;7.028;2023-01-29T09:31:00;9.40;65.00
913;DHT22;443;51.448;7.028;2023-01-29T09:33:26;9.50;65.00
913;DHT22;443;51.448;7.028;2023-01-29T09:35:53;9.50;66.10
913;DHT22;443;51.448;7.028;2023-01-29T09:38:21;9.40;64.70
913;DHT22;443;51.448;7.028;2023-01-29T09:40:56;9.40;64.70
913;DHT22;443;51.448;7.028;2023-01-29T09:43:29;9.40;65.00
913;DHT22;443;51.448;7.028;2023-01-29T09:46:00;9.50;64.80
913;DHT22;443;51.448;7.028;2023-01-29T09:48:29;9.60;64.80
913;DHT22;443;51.448;7.028;2023-01-29T09:50:59;9.50;64.40
913;DHT22;443;51.448;7.028;2023-01-29T09:53:35;9.50;65.20
913;DHT22;443;51.448;7.028;2023-01-29T09:56:08;9.60;65.20
913;DHT22;443;51.448;7.028;2023-01-29T09:58:38;9.60;65.40
913;DHT22;443;51.448;7.028;2023-01-29T10:01:12;9.70;66.00
913;DHT22;443;51.448;7.028;2023-01-29T10:06:40;9.70;65.60
913;DHT22;443;51.448;7.028;2023-01-29T10:09:41;9.80;65.10
913;DHT22;443;51.448;7.028;2023-01-29T10:12:28;9.90;64.80
913;DHT22;443;51.448;7.028;2023-01-29T10:15:05;9.70;66.40
913;DHT22;443;51.448;7.028;2023-01-29T10:17:49;9.70;64.80
913;DHT22;443;51.448;7.028;2023-01-29T10:20:33;9.70;64.60
913;DHT22;443;51.448;7.028;2023-01-29T10:23:14;9.60;64.50
913;DHT22;443;51.448;7.028;2023-01-29T10:25:44;9.60;64.20
913;DHT22;443;51.448;7.028;2023-01-29T10:28:16;9.70;65.10
913;DHT22;443;51.448;7.028;2023-01-29T10:30:47;9.60;64.70
913;DHT22;443;51.448;7.028;2023-01-29T10:33:17;9.50;65.50
913;DHT22;443;51.448;7.028;2023-01-29T10:35:48;9.60;66.00
913;DHT22;443;51.448;7.028;2023-01-29T10:38:30;9.40;65.60
913;DHT22;443;51.448;7.028;2023-01-29T10:41:12;9.50;64.80
913;DHT22;443;51.448;7.028;2023-01-29T10:43:52;9.50;65.80
913;DHT22;443;51.448;7.028;2023-01-29T10:46:28;9.60;64.60
913;DHT22;443;51.448;7.028;2023-01-29T10:49:07;9.50;64.70
913;DHT22;443;51.448;7.028;2023-01-29T10:51:53;9.60;65.30
913;DHT22;443;51.448;7.028;2023-01-29T10:54:41;9.70;64.70
913;DHT22;443;51.448;7.028;2023-01-29T10:57:18;9.60;64.80
913;DHT22;443;51.448;7.028;2023-01-29T11:00:01;9.70;64.80
913;DHT22;443;51.448;7.028;2023-01-29T11:02:32;9.70;64.70
913;DHT22;443;51.448;7.028;2023-01-29T11:04:59;9.70;65.50
913;DHT22;443;51.448;7.028;2023-01-29T11:07:26;9.70;65.50
913;DHT22;443;51.448;7.028;2023-01-29T11:10:01;9.70;64.50
913;DHT22;443;51.448;7.028;2023-01-29T11:12:32;9.70;65.20
913;DHT22;443;51.448;7.028;2023-01-29T11:15:05;9.70;65.00
913;DHT22;443;51.448;7.028;2023-01-29T11:17:32;9.80;65.20
913;DHT22;443;51.448;7.028;2023-01-29T11:19:59;9.80;65.10
913;DHT22;443;51.448;7.028;2023-01-29T11:22:26;9.80;64.10
913;DHT22;443;51.448;7.028;2023-01-29T11:25:08;9.70;63.90
913;DHT22;443;51.448;7.028;2023-01-29T11:27:43;9.70;63.80
913;DHT22;443;51.448;7.028;2023-01-29T11:30:15;9.70;65.00
913;DHT22;443;51.448;7.028;2023-01-29T11:32:49;9.60;64.40
913;DHT22;443;51.448;7.028;2023-01-29T11:35:21;9.70;65.10
913;DHT22;443;51.448;7.028;2023-01-29T11:37:48;9.60;64.10
913;DHT22;443;51.448;7.028;2023-01-29T11:40:36;9.60;65.00
913;DHT22;443;51.448;7.028;2023-01-29T11:43:18;9.60;64.20
913;DHT22;443;51.448;7.028;2023-01-29T11:45:46;9.70;64.20
913;DHT22;443;51.448;7.028;2023-01-29T11:48:17;9.60;65.40
913;DHT22;443;51.448;7.028;2023-01-29T11:50:50;9.60;65.30
913;DHT22;443;51.448;7.028;2023-01-29T11:53:23;9.60;64.80
913;DHT22;443;51.448;7.028;2023-01-29T11:55:51;9.70;65.10
913;DHT22;443;51.448;7.028;2023-01-29T11:58:26;9.60;64.60
913;DHT22;443;51.448;7.028;2023-01-29T12:00:55;9.70;65.00
913;DHT22;443;51.448;7.028;2023-01-29T12:03:31;9.60;65.00
913;DHT22;443;51.448;7.028;2023-01-29T12:06:01;9.80;64.80
913;DHT22;443;51.448;7.028;2023-01-29T12:08:32;9.70;64.30
913;DHT22;443;51.448;7.028;2023-01-29T12:11:10;9.70;66.90
913;DHT22;443;51.448;7.028;2023-01-29T12:13:40;9.80;65.30
913;DHT22;443;51.448;7.028;2023-01-29T12:16:22;9.80;64.70
913;DHT22;443;51.448;7.028;2023-01-29T12:18:54;9.70;65.00
913;DHT22;443;51.448;7.028;2023-01-29T12:21:28;9.80;65.00
913;DHT22;443;51.448;7.028;2023-01-29T12:24:02;9.70;64.50
913;DHT22;443;51.448;7.028;2023-01-29T12:26:32;9.70;67.40
913;DHT22;443;51.448;7.028;2023-01-29T12:29:18;9.70;65.10
913;DHT22;443;51.448;7.028;2023-01-29T12:31:50;9.70;64.60
913;DHT22;443;51.448;7.028;2023-01-29T12:34:23;9.70;65.20
913;DHT22;443;51.448;7.028;2023-01-29T12:36:58;9.70;64.80
913;DHT22;443;51.448;7.028;2023-01-29T12:39:26;9.70;64.60
913;DHT22;443;51.448;7.028;2023-01-29T12:41:57;9.70;64.40
913;DHT22;443;51.448;7.028;2023-01-29T12:44:30;9.70;64.70
913;DHT22;443;51.448;7.028;2023-01-29T12:47:00;9.70;65.90
913;DHT22;443;51.448;7.028;2023-01-29T12:49:31;9.70;65.20
913;DHT22;443;51.448;7.028;2023-01-29T12:52:02;9.70;64.80
913;DHT22;443;51.448;7.028;2023-01-29T12:54:34;9.60;65.50
913;DHT22;443;51.448;7.028;2023-01-29T12:57:06;9.60;66.10
913;DHT22;443;51.448;7.028;2023-01-29T12:59:41;9.70;65.10
913;DHT22;443;51.448;7.028;2023-01-29T13:02:29;9.60;67.80
913;DHT22;443;51.448;7.028;2023-01-29T13:04:59;9.70;65.40
913;DHT22;443;51.448;7.028;2023-01-29T13:07:31;9.80;64.70
913;DHT22;443;51.448;7.028;2023-01-29T13:10:04;9.80;66.50
913;DHT22;443;51.448;7.028;2023-01-29T13:12:33;9.80;67.20
913;DHT22;443;51.448;7.028;2023-01-29T13:15:04;9.70;65.00
913;DHT22;443;51.448;7.028;2023-01-29T13:17:35;9.70;64.60
913;DHT22;443;51.448;7.028;2023-01-29T13:20:09;9.80;64.20
913;DHT22;443;51.448;7.028;2023-01-29T13:22:39;9.80;63.90
913;DHT22;443;51.448;7.028;2023-01-29T13:25:13;9.80;64.80
913;DHT22;443;51.448;7.028;2023-01-29T13:27:42;9.70;65.30
913;DHT22;443;51.448;7.028;2023-01-29T13:30:24;9.60;65.10
913;DHT22;443;51.448;7.028;2023-01-29T13:32:52;9.70;65.00
913;DHT22;443;51.448;7.028;2023-01-29T13:35:21;9.80;65.30
913;DHT22;443;51.448;7.028;2023-01-29T13:37:50;9.80;67.20
913;DHT22;443;51.448;7.028;2023-01-29T13:40:22;9.70;65.00
913;DHT22;443;51.448;7.028;2023-01-29T13:42:50;9.90;64.70
913;DHT22;443;51.448;7.028;2023-01-29T13:45:21;9.80;64.90
913;DHT22;443;51.448;7.028;2023-01-29T13:47:50;9.80;67.80
913;DHT22;443;51.448;7.028;2023-01-29T13:50:22;9.80;64.60
913;DHT22;443;51.448;7.028;2023-01-29T13:52:56;9.90;65.20
913;DHT22;443;51.448;7.028;2023-01-29T13:55:26;9.90;64.60
913;DHT22;443;51.448;7.028;2023-01-29T13:57:56;9.70;65.30
913;DHT22;443;51.448;7.028;2023-01-29T14:00:58;9.80;67.40
913;DHT22;443;51.448;7.028;2023-01-29T14:03:48;9.80;64.70
913;DHT22;443;51.448;7.028;2023-01-29T14:12:42;9.90;64.50
913;DHT22;443;51.448;7.028;2023-01-29T14:15:24;9.90;65.00
913;DHT22;443;51.448;7.028;2023-01-29T14:20:57;10.00;64.10
913;DHT22;443;51.448;7.028;2023-01-29T14:23:34;9.90;65.20
913;DHT22;443;51.448;7.028;2023-01-29T14:26:04;9.90;64.50
913;DHT22;443;51.448;7.028;2023-01-29T14:28:32;9.90;64.90
913;DHT22;443;51.448;7.028;2023-01-29T14:31:00;9.90;66.60
913;DHT22;443;51.448;7.028;2023-01-29T14:33:33;10.00;64.20
913;DHT22;443;51.448;7.028;2023-01-29T14:36:04;10.00;63.20
913;DHT22;443;51.448;7.028;2023-01-29T14:38:32;10.00;63.40
913;DHT22;443;51.448;7.028;2023-01-29T14:41:07;9.90;64.60
913;DHT22;443;51.448;7.028;2023-01-29T14:43:37;9.80;68.20
913;DHT22;443;51.448;7.028;2023-01-29T14:46:42;9.70;65.60
913;DHT22;443;51.448;7.028;2023-01-29T14:49:11;9.90;65.00
913;DHT22;443;51.448;7.028;2023-01-29T14:51:41;9.90;65.00
913;DHT22;443;51.448;7.028;2023-01-29T14:54:24;9.90;65.80
913;DHT22;443;51.448;7.028;2023-01-29T14:56:57;10.00;64.40
913;DHT22;443;51.448;7.028;2023-01-29T14:59:31;9.90;65.40
913;DHT22;443;51.448;7.028;2023-01-29T15:02:01;9.90;64.60
913;DHT22;443;51.448;7.028;2023-01-29T15:04:35;10.00;63.50
913;DHT22;443;51.448;7.028;2023-01-29T15:07:11;9.90;64.80
913;DHT22;443;51.448;7.028;2023-01-29T15:09:44;9.90;65.10
913;DHT22;443;51.448;7.028;2023-01-29T15:12:17;9.80;64.50
913;DHT22;443;51.448;7.028;2023-01-29T15:14:51;9.80;65.60
913;DHT22;443;51.448;7.028;2023-01-29T15:17:26;9.80;65.40
913;DHT22;443;51.448;7.028;2023-01-29T15:19:55;9.90;64.90
913;DHT22;443;51.448;7.028;2023-01-29T15:22:23;9.80;65.00
913;DHT22;443;51.448;7.028;2023-01-29T15:25:03;9.80;66.60
913;DHT22;443;51.448;7.028;2023-01-29T15:27:32;9.80;66.00
913;DHT22;443;51.448;7.028;2023-01-29T15:30:00;9.90;65.00
913;DHT22;443;51.448;7.028;2023-01-29T15:32:32;9.90;65.90
913;DHT22;443;51.448;7.028;2023-01-29T15:35:08;10.00;64.00
913;DHT22;443;51.448;7.028;2023-01-29T15:37:36;9.90;65.50
913;DHT22;443;51.448;7.028;2023-01-29T15:40:05;10.00;63.90
913;DHT22;443;51.448;7.028;2023-01-29T15:42:42;9.90;65.00
913;DHT22;443;51.448;7.028;2023-01-29T15:45:21;9.90;65.00
913;DHT22;443;51.448;7.028;2023-01-29T15:47:48;9.90;65.50
913;DHT22;443;51.448;7.028;2023-01-29T15:50:16;9.90;64.90
913;DHT22;443;51.448;7.028;2023-01-29T15:52:47;10.10;64.20
913;DHT22;443;51.448;7.028;2023-01-29T15:55:15;10.00;63.10
913;DHT22;443;51.448;7.028;2023-01-29T15:57:44;10.00;65.70
913;DHT22;443;51.448;7.028;2023-01-29T16:00:20;10.00;64.70
913;DHT22;443;51.448;7.028;2023-01-29T16:02:47;9.90;65.50
913;DHT22;443;51.448;7.028;2023-01-29T16:05:17;9.90;65.40
913;DHT22;443;51.448;7.028;2023-01-29T16:07:46;10.00;64.40
913;DHT22;443;51.448;7.028;2023-01-29T16:10:15;9.90;65.60
913;DHT22;443;51.448;7.028;2023-01-29T16:12:43;10.00;67.30
913;DHT22;443;51.448;7.028;2023-01-29T16:15:20;10.00;64.70
913;DHT22;443;51.448;7.028;2023-01-29T16:17:47;10.00;63.70
913;DHT22;443;51.448;7.028;2023-01-29T16:20:32;10.00;64.10
913;DHT22;443;51.448;7.028;2023-01-29T16:23:01;10.00;63.60
913;DHT22;443;51.448;7.028;2023-01-29T16:25:28;10.00;64.30
913;DHT22;443;51.448;7.028;2023-01-29T16:27:56;10.10;64.60
913;DHT22;443;51.448;7.028;2023-01-29T16:30:25;10.10;64.10
913;DHT22;443;51.448;7.028;2023-01-29T16:32:52;10.00;64.30
913;DHT22;443;51.448;7.028;2023-01-29T16:35:27;10.10;64.70
913;DHT22;443;51.448;7.028;2023-01-29T16:37:58;10.10;63.80
913;DHT22;443;51.448;7.028;2023-01-29T16:40:29;10.10;64.80
913;DHT22;443;51.448;7.028;2023-01-29T16:43:43;10.10;64.20
913;DHT22;443;51.448;7.028;2023-01-29T16:46:22;10.10;64.00
913;DHT22;443;51.448;7.028;2023-01-29T16:48:49;10.20;64.10
913;DHT22;443;51.448;7.028;2023-01-29T16:51:22;10.10;64.30
913;DHT22;443;51.448;7.028;2023-01-29T16:54:01;10.00;64.30
913;DHT22;443;51.448;7.028;2023-01-29T16:56:32;10.10;65.10
913;DHT22;443;51.448;7.028;2023-01-29T16:59:02;10.00;65.00
913;DHT22;443;51.448;7.028;2023-01-29T17:01:30;10.00;65.30
913;DHT22;443;51.448;7.028;2023-01-29T17:04:06;10.10;64.80
913;DHT22;443;51.448;7.028;2023-01-29T17:06:38;10.10;63.60
913;DHT22;443;51.448;7.028;2023-01-29T17:09:06;10.10;64.10
913;DHT22;443;51.448;7.028;2023-01-29T17:11:36;10.10;65.00
913;DHT22;443;51.448;7.028;2023-01-29T17:14:05;10.10;64.00
913;DHT22;443;51.448;7.028;2023-01-29T17:16:34;10.10;65.10
913;DHT22;443;51.448;7.028;2023-01-29T17:19:13;10.10;64.70
913;DHT22;443;51.448;7.028;2023-01-29T17:21:43;10.10;64.60
913;DHT22;443;51.448;7.028;2023-01-29T17:24:10;10.00;64.30
913;DHT22;443;51.448;7.028;2023-01-29T17:26:37;10.10;64.10
913;DHT22;443;51.448;7.028;2023-01-29T17:29:04;10.10;63.70